Melody — 3FBS7 — position and weather

sailwx.info

Track history (hours):
 
Tides and Currents Weather Stations Pressure Air Temp Water Temp Dewpoint Dewpoint Depression Visibility Wind Speed Wind Dir Waves Ship Positions

Melody

Operator: Mediterranean Shipping Company

Last reported at 2020-Jan-27 06:00 UTC. Time now 2020-Jan-27 10:09 UTC.
Position N 29°19' W 094°48'.

Length 225 m; draft 8 m.

Type: Tanker. MMSI: 371669000.

Date/timePositionNaut miles runAvg speedWind from/ knotsBaromVisibWave heightAir tempDewpointWater temp
2020-Jan-27 06:00N 29°19' W 094°48'0 0.0
2020-Jan-27 04:00N 29°19' W 094°48'0 0.0
2020-Jan-27 01:30N 29°19' W 094°48'0 0.0
2020-Jan-26 22:30N 29°19' W 094°48'0 0.0
2020-Jan-26 21:57N 29°19' W 094°48'0 0.0
2020-Jan-26 21:27N 29°19' W 094°48'0 0.0
2020-Jan-26 19:57N 29°19' W 094°48'0 0.0
2020-Jan-26 18:27N 29°19' W 094°48'0 0.0
2020-Jan-26 17:51N 29°19' W 094°48'4 1.7
2020-Jan-26 15:29N 29°21' W 094°44'0 0.0
2020-Jan-26 14:28N 29°21' W 094°44'0 0.0
2020-Jan-26 13:58N 29°21' W 094°44'0 0.1
2020-Jan-26 11:58N 29°21' W 094°44'0 0.1
2020-Jan-26 11:28N 29°21' W 094°44'0 0.2
2020-Jan-26 10:58N 29°21' W 094°44'0 0.1
2020-Jan-26 09:58N 29°21' W 094°44'0 0.0
2020-Jan-26 09:28N 29°21' W 094°44'0 0.0
2020-Jan-26 05:28N 29°21' W 094°44'0 0.0
2020-Jan-26 01:28N 29°21' W 094°44'0 0.0
2020-Jan-26 00:55N 29°21' W 094°44'0 0.0
2020-Jan-25 22:25N 29°21' W 094°44'11 2.7
2020-Jan-25 18:30N 29°16' W 094°34'510.7
2020-Jan-25 18:00N 29°11' W 094°35'1 1.2
2020-Jan-25 17:26N 29°10' W 094°36'0 0.0
2020-Jan-25 13:29N 29°10' W 094°36'0 0.0
2020-Jan-25 12:29N 29°10' W 094°36'0 0.0
2020-Jan-25 11:59N 29°10' W 094°36'0 0.0
2020-Jan-25 11:26N 29°10' W 094°36'0 0.0
2020-Jan-25 07:59N 29°10' W 094°36'0 0.0
2020-Jan-25 07:29N 29°10' W 094°36'0 0.0
2020-Jan-25 03:29N 29°10' W 094°36'0 0.0
2020-Jan-25 00:59N 29°10' W 094°36'0 0.0
2020-Jan-25 00:23N 29°10' W 094°36'0 0.0
2020-Jan-24 22:50N 29°10' W 094°36'0 0.0
2020-Jan-24 20:02N 29°10' W 094°36'0 0.0
2020-Jan-24 19:11N 29°10' W 094°36'0 0.1
2020-Jan-24 15:52N 29°10' W 094°35'0 0.0
2020-Jan-24 14:49N 29°10' W 094°35'0 0.0
2020-Jan-24 13:52N 29°10' W 094°35'0 0.0
2020-Jan-24 11:58N 29°10' W 094°35'0 0.0
2020-Jan-24 10:58N 29°10' W 094°35'0 0.0
2020-Jan-24 10:28N 29°10' W 094°35'0 0.0
2020-Jan-24 09:58N 29°10' W 094°35'0 0.1
2020-Jan-24 07:30N 29°10' W 094°35'2 4.8
2020-Jan-24 07:00N 29°13' W 094°36'3 0.8
2020-Jan-24 03:27N 29°11' W 094°38'0 0.0
2020-Jan-24 02:30N 29°11' W 094°38'0 0.0
2020-Jan-24 00:18N 29°11' W 094°38'0 0.0
2020-Jan-23 23:30N 29°11' W 094°38'0 0.0
2020-Jan-23 15:24N 29°11' W 094°38'0 0.0
2020-Jan-23 10:54N 29°11' W 094°38'0 0.0
2020-Jan-23 10:00N 29°11' W 094°38'0 0.0
2020-Jan-23 06:00N 29°11' W 094°38'0 0.0
2020-Jan-23 05:27N 29°11' W 094°38'0 0.0
2020-Jan-22 18:57N 29°11' W 094°38'0 0.0
2020-Jan-22 15:00N 29°11' W 094°38'0 0.0
2020-Jan-21 13:00N 29°11' W 094°38'0 0.0
2020-Jan-21 11:18N 29°11' W 094°38'0 0.0
2020-Jan-21 10:21N 29°11' W 094°38'0 0.0
2020-Jan-21 07:24N 29°11' W 094°38'0 0.0
2020-Jan-21 06:42N 29°11' W 094°38'  
Track history (hours):
 
Tides and Currents Weather Stations Pressure Air Temp Water Temp Dewpoint Dewpoint Depression Visibility Wind Speed Wind Dir Waves Ship Positions

Melody

Operator: Mediterranean Shipping Company

Last reported at 2020-Jan-27 06:00 UTC. Time now 2020-Jan-27 10:09 UTC.
Position N 29°19' W 094°48'.

Length 225 m; draft 8 m.

Type: Tanker. MMSI: 371669000.

Date/timePositionNaut miles runAvg speedWind from/ knotsBaromVisibWave heightAir tempDewpointWater temp
2020-Jan-27 06:00N 29°19' W 094°48'0 0.0
2020-Jan-27 04:00N 29°19' W 094°48'0 0.0
2020-Jan-27 01:30N 29°19' W 094°48'0 0.0
2020-Jan-26 22:30N 29°19' W 094°48'0 0.0
2020-Jan-26 21:57N 29°19' W 094°48'0 0.0
2020-Jan-26 21:27N 29°19' W 094°48'0 0.0
2020-Jan-26 19:57N 29°19' W 094°48'0 0.0
2020-Jan-26 18:27N 29°19' W 094°48'0 0.0
2020-Jan-26 17:51N 29°19' W 094°48'4 1.7
2020-Jan-26 15:29N 29°21' W 094°44'0 0.0
2020-Jan-26 14:28N 29°21' W 094°44'0 0.0
2020-Jan-26 13:58N 29°21' W 094°44'0 0.1
2020-Jan-26 11:58N 29°21' W 094°44'0 0.1
2020-Jan-26 11:28N 29°21' W 094°44'0 0.2
2020-Jan-26 10:58N 29°21' W 094°44'0 0.1
2020-Jan-26 09:58N 29°21' W 094°44'0 0.0
2020-Jan-26 09:28N 29°21' W 094°44'0 0.0
2020-Jan-26 05:28N 29°21' W 094°44'0 0.0
2020-Jan-26 01:28N 29°21' W 094°44'0 0.0
2020-Jan-26 00:55N 29°21' W 094°44'0 0.0
2020-Jan-25 22:25N 29°21' W 094°44'11 2.7
2020-Jan-25 18:30N 29°16' W 094°34'510.7
2020-Jan-25 18:00N 29°11' W 094°35'1 1.2
2020-Jan-25 17:26N 29°10' W 094°36'0 0.0
2020-Jan-25 13:29N 29°10' W 094°36'0 0.0
2020-Jan-25 12:29N 29°10' W 094°36'0 0.0
2020-Jan-25 11:59N 29°10' W 094°36'0 0.0
2020-Jan-25 11:26N 29°10' W 094°36'0 0.0
2020-Jan-25 07:59N 29°10' W 094°36'0 0.0
2020-Jan-25 07:29N 29°10' W 094°36'0 0.0
2020-Jan-25 03:29N 29°10' W 094°36'0 0.0
2020-Jan-25 00:59N 29°10' W 094°36'0 0.0
2020-Jan-25 00:23N 29°10' W 094°36'0 0.0
2020-Jan-24 22:50N 29°10' W 094°36'0 0.0
2020-Jan-24 20:02N 29°10' W 094°36'0 0.0
2020-Jan-24 19:11N 29°10' W 094°36'0 0.1
2020-Jan-24 15:52N 29°10' W 094°35'0 0.0
2020-Jan-24 14:49N 29°10' W 094°35'0 0.0
2020-Jan-24 13:52N 29°10' W 094°35'0 0.0
2020-Jan-24 11:58N 29°10' W 094°35'0 0.0
2020-Jan-24 10:58N 29°10' W 094°35'0 0.0
2020-Jan-24 10:28N 29°10' W 094°35'0 0.0
2020-Jan-24 09:58N 29°10' W 094°35'0 0.1
2020-Jan-24 07:30N 29°10' W 094°35'2 4.8
2020-Jan-24 07:00N 29°13' W 094°36'3 0.8
2020-Jan-24 03:27N 29°11' W 094°38'0 0.0
2020-Jan-24 02:30N 29°11' W 094°38'0 0.0
2020-Jan-24 00:18N 29°11' W 094°38'0 0.0
2020-Jan-23 23:30N 29°11' W 094°38'0 0.0
2020-Jan-23 15:24N 29°11' W 094°38'0 0.0
2020-Jan-23 10:54N 29°11' W 094°38'0 0.0
2020-Jan-23 10:00N 29°11' W 094°38'0 0.0
2020-Jan-23 06:00N 29°11' W 094°38'0 0.0
2020-Jan-23 05:27N 29°11' W 094°38'0 0.0
2020-Jan-22 18:57N 29°11' W 094°38'0 0.0
2020-Jan-22 15:00N 29°11' W 094°38'0 0.0
2020-Jan-21 13:00N 29°11' W 094°38'0 0.0
2020-Jan-21 11:18N 29°11' W 094°38'0 0.0
2020-Jan-21 10:21N 29°11' W 094°38'0 0.0
2020-Jan-21 07:24N 29°11' W 094°38'0 0.0
2020-Jan-21 06:42N 29°11' W 094°38'  

Dump ship's entire track history